Time;durP1;ratioP1;P1;durP2;ratioP2;P2;SDS_P1;SDS_P2;PMS_P1;PMS_P2;Temp;Humidity;BMP_temperature;BMP_pressure;BME280_temperature;BME280_humidity;BME280_pressure;Samples;Min_cycle;Max_cycle;Signal;HPM_P1;HPM_P2
2021/08/27 00:01:01;;;;;;;5.07;1.10;;;13.20;99.90;;;;;;5012859;28;20025;-77
2021/08/27 00:03:27;;;;;;;8.38;1.50;;;13.20;99.90;;;;;;5011691;28;20229;-79
2021/08/27 00:05:53;;;;;;;3.65;0.85;;;13.10;99.90;;;;;;5012450;28;20502;-78
2021/08/27 00:08:18;;;;;;;12.45;2.00;;;13.10;99.90;;;;;;5012308;28;20030;-81
2021/08/27 00:10:44;;;;;;;5.15;1.00;;;13.10;99.90;;;;;;5011650;28;20017;-78
2021/08/27 00:13:11;;;;;;;10.00;1.63;;;13.10;99.90;;;;;;5012252;28;20489;-77
2021/08/27 00:15:37;;;;;;;5.93;1.17;;;13.10;99.90;;;;;;5011834;28;20042;-78
2021/08/27 00:18:03;;;;;;;5.13;1.20;;;13.10;99.90;;;;;;5011581;28;20029;-76
2021/08/27 00:20:28;;;;;;;3.85;0.90;;;13.10;99.90;;;;;;5011971;28;20030;-78
2021/08/27 00:22:54;;;;;;;6.05;1.25;;;13.10;99.90;;;;;;5011809;28;20458;-76
2021/08/27 00:25:19;;;;;;;6.95;1.30;;;13.20;99.90;;;;;;5011614;28;20033;-77
2021/08/27 00:27:45;;;;;;;7.05;1.92;;;13.10;99.90;;;;;;5011696;28;20022;-78
2021/08/27 00:30:11;;;;;;;6.40;0.90;;;13.20;99.90;;;;;;5011463;28;20102;-78
2021/08/27 00:32:37;;;;;;;4.28;1.00;;;13.10;99.90;;;;;;5011256;28;20112;-78
2021/08/27 00:35:04;;;;;;;5.80;1.10;;;13.10;99.90;;;;;;5012368;28;20057;-78
2021/08/27 00:37:31;;;;;;;5.68;1.23;;;13.10;99.90;;;;;;5011253;28;20032;-75
2021/08/27 00:39:57;;;;;;;3.08;1.10;;;13.10;99.90;;;;;;5011782;28;20443;-77
2021/08/27 00:42:23;;;;;;;5.32;1.02;;;13.10;99.90;;;;;;5012025;28;20033;-76
2021/08/27 00:44:49;;;;;;;6.07;1.20;;;13.10;99.90;;;;;;5010591;28;20367;-76
2021/08/27 00:47:16;;;;;;;4.85;1.10;;;13.00;99.90;;;;;;5011468;28;20108;-76
2021/08/27 00:49:41;;;;;;;8.48;1.10;;;13.00;99.90;;;;;;5011543;28;20057;-77
2021/08/27 00:52:09;;;;;;;11.52;1.02;;;13.00;99.90;;;;;;5011190;28;20403;-77
2021/08/27 00:54:36;;;;;;;3.97;1.30;;;13.00;99.90;;;;;;5011532;28;20497;-76
2021/08/27 00:57:06;;;;;;;7.65;1.05;;;13.10;99.90;;;;;;5011826;28;20026;-77
2021/08/27 00:59:34;;;;;;;3.30;1.02;;;13.20;99.90;;;;;;5011097;28;20116;-77
2021/08/27 01:02:00;;;;;;;6.78;1.23;;;13.30;99.90;;;;;;5011346;28;20124;-76
2021/08/27 01:04:25;;;;;;;7.53;1.10;;;13.40;99.90;;;;;;5011864;28;20538;-76
2021/08/27 01:06:58;;;;;;;6.05;1.30;;;13.50;99.90;;;;;;5013396;28;20474;-77
2021/08/27 01:09:54;;;;;;;8.80;1.10;;;13.50;99.90;;;;;;5015704;28;20053;-77
2021/08/27 01:12:43;;;;;;;6.20;1.30;;;13.50;99.90;;;;;;5015135;28;20037;-77
2021/08/27 01:15:22;;;;;;;6.00;1.58;;;13.50;99.90;;;;;;5015859;28;20033;-76
2021/08/27 01:17:59;;;;;;;7.13;1.00;;;13.50;99.90;;;;;;5015388;28;20156;-77
2021/08/27 01:20:59;;;;;;;10.15;1.50;;;13.50;99.90;;;;;;5014918;28;20026;-80
2021/08/27 01:23:56;;;;;;;6.18;1.15;;;13.50;99.90;;;;;;5015292;28;20033;-75
2021/08/27 01:26:26;;;;;;;7.85;2.22;;;13.60;99.90;;;;;;5014671;28;20038;-76
2021/08/27 01:28:54;;;;;;;11.32;1.75;;;13.50;99.90;;;;;;5016085;28;20558;-77
2021/08/27 01:31:29;;;;;;;8.65;1.45;;;13.60;99.90;;;;;;5015646;28;20928;-78
2021/08/27 01:34:28;;;;;;;9.05;1.65;;;13.50;99.90;;;;;;5014723;28;20029;-77
2021/08/27 01:36:55;;;;;;;7.53;1.95;;;13.60;99.90;;;;;;5014744;28;20037;-79
2021/08/27 01:39:25;;;;;;;8.95;1.13;;;13.70;99.90;;;;;;5014804;28;20038;-76
2021/08/27 01:41:53;;;;;;;7.65;1.17;;;13.60;99.90;;;;;;5013602;28;20033;-76
2021/08/27 01:44:21;;;;;;;3.33;0.68;;;13.60;99.90;;;;;;5014619;28;20076;-75
2021/08/27 01:46:50;;;;;;;10.15;1.45;;;13.50;99.90;;;;;;5014120;28;20029;-78
2021/08/27 01:49:16;;;;;;;4.43;1.20;;;13.50;99.90;;;;;;5013867;28;20061;-76
2021/08/27 01:51:44;;;;;;;3.53;1.05;;;13.50;99.90;;;;;;5014631;28;20038;-77
2021/08/27 01:54:10;;;;;;;8.10;1.38;;;13.50;99.90;;;;;;5014559;28;20065;-76
2021/08/27 01:56:37;;;;;;;10.15;1.73;;;13.50;99.90;;;;;;5013721;28;20029;-77
2021/08/27 01:59:04;;;;;;;9.90;1.58;;;13.50;99.90;;;;;;5014376;28;20034;-76
2021/08/27 02:01:32;;;;;;;8.35;1.88;;;13.50;99.90;;;;;;5013813;28;20052;-77
2021/08/27 02:04:02;;;;;;;7.35;1.52;;;13.40;99.90;;;;;;5014466;28;20041;-77
2021/08/27 02:06:29;;;;;;;7.90;1.30;;;13.60;99.90;;;;;;5014673;28;20029;-77
2021/08/27 02:08:55;;;;;;;8.18;1.15;;;13.50;99.90;;;;;;5013841;28;20030;-77
2021/08/27 02:11:21;;;;;;;4.13;1.33;;;13.60;99.90;;;;;;5014692;28;20026;-77
2021/08/27 02:13:49;;;;;;;11.77;2.00;;;13.50;99.90;;;;;;5014993;28;20034;-76
2021/08/27 02:16:15;;;;;;;6.38;1.17;;;13.50;99.90;;;;;;5014114;28;20049;-79
2021/08/27 02:18:41;;;;;;;7.47;1.55;;;13.50;99.90;;;;;;5013260;28;20040;-78
2021/08/27 02:21:10;;;;;;;9.23;1.30;;;13.40;99.90;;;;;;5014349;28;20022;-77
2021/08/27 02:23:40;;;;;;;6.43;1.58;;;13.50;99.90;;;;;;5013685;28;20344;-78
2021/08/27 02:26:06;;;;;;;8.30;1.58;;;13.40;99.90;;;;;;5014346;28;20022;-77
2021/08/27 02:28:33;;;;;;;9.25;1.70;;;13.40;99.90;;;;;;5014112;28;20049;-77
2021/08/27 02:30:59;;;;;;;5.57;1.08;;;13.40;99.90;;;;;;5013530;28;20432;-77
2021/08/27 02:33:26;;;;;;;4.45;1.45;;;13.40;99.90;;;;;;5014541;28;20033;-76
2021/08/27 02:35:53;;;;;;;8.02;1.40;;;13.30;99.90;;;;;;5014281;28;20030;-77
2021/08/27 02:38:22;;;;;;;3.78;1.30;;;13.30;99.90;;;;;;5013596;28;20405;-77
2021/08/27 02:40:48;;;;;;;6.90;1.70;;;13.30;99.90;;;;;;5013751;28;20014;-77
2021/08/27 02:43:14;;;;;;;7.20;1.95;;;13.20;99.90;;;;;;5014195;28;20038;-77
2021/08/27 02:45:41;;;;;;;7.53;1.48;;;13.40;99.90;;;;;;5013067;28;20038;-77
2021/08/27 02:48:07;;;;;;;7.80;1.23;;;13.10;99.90;;;;;;5013650;28;20050;-77
2021/08/27 02:50:41;;;;;;;10.55;1.25;;;13.10;99.90;;;;;;5013668;28;20022;-77
2021/08/27 02:53:15;;;;;;;13.82;2.05;;;13.00;99.90;;;;;;5013478;28;20029;-77
2021/08/27 02:55:46;;;;;;;7.53;1.23;;;13.00;99.90;;;;;;5013705;28;20041;-77
2021/08/27 02:58:17;;;;;;;7.75;1.27;;;12.90;99.90;;;;;;5012512;28;20478;-77
2021/08/27 03:01:08;;;;;;;8.95;2.08;;;12.90;99.90;;;;;;5013471;28;20041;-78
2021/08/27 03:03:53;;;;;;;6.22;1.50;;;12.90;99.90;;;;;;5013255;28;20499;-77
2021/08/27 03:06:22;;;;;;;9.02;1.42;;;12.90;99.90;;;;;;5012864;28;20026;-76
2021/08/27 03:08:56;;;;;;;13.63;1.50;;;12.90;99.90;;;;;;5013177;28;20087;-77
2021/08/27 03:11:27;;;;;;;9.95;1.30;;;13.40;99.90;;;;;;5012447;28;20026;-77
2021/08/27 03:13:59;;;;;;;7.45;1.30;;;12.90;99.90;;;;;;5014179;28;20094;-77
2021/08/27 03:16:26;;;;;;;8.10;1.60;;;12.90;99.90;;;;;;5014562;28;20113;-78
2021/08/27 03:18:58;;;;;;;9.05;1.92;;;12.90;99.90;;;;;;5013456;28;20406;-76
2021/08/27 03:21:33;;;;;;;13.57;1.15;;;12.90;99.90;;;;;;5014381;28;20029;-76
2021/08/27 03:24:13;;;;;;;5.38;1.20;;;13.00;99.90;;;;;;5013579;28;20037;-76
2021/08/27 03:26:39;;;;;;;6.85;1.20;;;12.90;99.90;;;;;;5013105;28;20512;-78
2021/08/27 03:29:09;;;;;;;5.07;1.25;;;12.90;99.90;;;;;;5012783;28;20419;-77
2021/08/27 03:31:37;;;;;;;6.57;1.60;;;12.90;99.90;;;;;;5012820;28;20470;-76
2021/08/27 03:34:04;;;;;;;7.50;1.25;;;12.90;99.90;;;;;;5013167;28;20030;-76
2021/08/27 03:36:31;;;;;;;7.95;1.73;;;12.80;99.90;;;;;;5013502;28;20072;-80
2021/08/27 03:38:59;;;;;;;10.13;1.95;;;12.80;99.90;;;;;;5013427;28;20032;-79
2021/08/27 03:41:30;;;;;;;5.43;1.00;;;12.70;99.90;;;;;;5012560;28;20392;-79
2021/08/27 03:43:57;;;;;;;10.00;1.40;;;12.80;99.90;;;;;;5014558;28;20033;-80
2021/08/27 03:46:23;;;;;;;6.53;2.00;;;12.80;99.90;;;;;;5015058;28;20022;-79
2021/08/27 03:48:50;;;;;;;3.90;0.93;;;12.80;99.90;;;;;;5012657;28;20064;-80
2021/08/27 03:51:17;;;;;;;2.58;1.02;;;12.80;99.90;;;;;;5012965;28;20092;-81
2021/08/27 03:53:44;;;;;;;7.65;1.17;;;12.80;99.90;;;;;;5013189;28;20557;-81
2021/08/27 03:56:11;;;;;;;9.25;1.27;;;12.80;99.90;;;;;;5017524;28;20088;-78
2021/08/27 03:58:37;;;;;;;3.63;1.35;;;12.70;99.90;;;;;;5013903;28;20091;-79
2021/08/27 04:01:04;;;;;;;5.93;1.23;;;12.70;99.90;;;;;;5017116;28;20029;-78
2021/08/27 04:03:30;;;;;;;5.32;1.15;;;12.70;99.90;;;;;;5014371;28;20088;-79
2021/08/27 04:06:05;;;;;;;3.88;1.23;;;12.70;99.90;;;;;;5014016;28;20109;-80
2021/08/27 04:08:33;;;;;;;11.57;1.20;;;12.70;99.90;;;;;;5012746;28;20026;-79
2021/08/27 04:10:59;;;;;;;4.22;1.10;;;13.10;99.90;;;;;;4999636;28;20034;-80
2021/08/27 04:13:27;;;;;;;4.28;1.00;;;12.60;99.90;;;;;;5013412;28;20062;-80
2021/08/27 04:15:53;;;;;;;4.75;1.20;;;12.70;99.90;;;;;;5011788;28;20367;-80
2021/08/27 04:18:19;;;;;;;3.42;1.23;;;12.70;99.90;;;;;;5012411;28;20022;-79
2021/08/27 04:20:45;;;;;;;6.25;1.10;;;12.70;99.90;;;;;;5012140;28;20033;-80
2021/08/27 04:23:10;;;;;;;5.90;1.23;;;12.70;99.90;;;;;;5012034;28;20450;-80
2021/08/27 04:25:36;;;;;;;4.85;1.40;;;12.70;99.90;;;;;;5011990;28;20022;-81
2021/08/27 04:28:01;;;;;;;4.32;1.80;;;12.80;99.90;;;;;;5012574;28;20065;-81
2021/08/27 04:30:27;;;;;;;5.93;2.20;;;13.70;99.90;;;;;;5011589;28;20044;-80
2021/08/27 04:32:52;;;;;;;4.53;1.40;;;12.90;99.90;;;;;;5012035;28;20033;-77
2021/08/27 04:35:18;;;;;;;5.18;1.10;;;12.90;99.90;;;;;;5012020;28;20098;-79
2021/08/27 04:37:43;;;;;;;3.88;1.70;;;12.90;99.90;;;;;;5010959;28;20034;-79
2021/08/27 04:40:10;;;;;;;7.75;1.50;;;13.00;99.90;;;;;;5011850;28;20470;-78
2021/08/27 04:42:36;;;;;;;1.98;1.10;;;13.00;99.90;;;;;;5011954;28;20451;-79
2021/08/27 04:45:02;;;;;;;5.13;1.48;;;13.00;99.90;;;;;;5011732;28;20140;-82
2021/08/27 04:47:27;;;;;;;3.65;1.13;;;13.10;99.90;;;;;;5001657;28;20042;-81
2021/08/27 04:49:53;;;;;;;5.68;1.73;;;13.10;99.90;;;;;;4997919;28;20034;-81
2021/08/27 04:52:18;;;;;;;6.97;1.27;;;13.10;99.90;;;;;;4996602;28;20662;-82
2021/08/27 04:54:44;;;;;;;8.77;1.40;;;13.20;99.90;;;;;;4995201;28;20034;-82
2021/08/27 04:57:09;;;;;;;3.70;1.30;;;13.20;99.90;;;;;;4996820;28;20089;-81
2021/08/27 04:59:35;;;;;;;5.53;2.13;;;13.10;99.90;;;;;;4995493;28;20037;-81
2021/08/27 05:02:01;;;;;;;8.88;1.70;;;13.20;99.90;;;;;;4999823;28;20359;-82
2021/08/27 05:04:29;;;;;;;13.77;1.17;;;13.20;99.90;;;;;;4993317;28;20402;-81
2021/08/27 05:06:55;;;;;;;3.15;0.93;;;13.10;99.90;;;;;;4999802;28;20030;-81
2021/08/27 05:09:21;;;;;;;9.88;1.60;;;13.10;99.90;;;;;;4998810;28;20023;-81
2021/08/27 05:11:46;;;;;;;2.05;1.25;;;13.10;99.90;;;;;;4992203;28;20344;-82
2021/08/27 05:14:12;;;;;;;4.35;1.73;;;13.10;99.90;;;;;;4997943;28;20041;-81
2021/08/27 05:16:39;;;;;;;3.05;1.40;;;13.10;99.90;;;;;;5004065;28;20390;-81
2021/08/27 05:19:04;;;;;;;5.80;1.95;;;13.00;99.90;;;;;;5009937;28;20037;-81
2021/08/27 05:21:30;;;;;;;8.65;1.63;;;12.90;99.90;;;;;;5009490;28;20034;-81
2021/08/27 05:23:56;;;;;;;5.22;1.38;;;12.90;99.90;;;;;;5011542;28;20038;-81
2021/08/27 05:26:21;;;;;;;7.28;1.67;;;13.00;99.90;;;;;;5010355;28;20061;-81
2021/08/27 05:28:47;;;;;;;5.15;1.45;;;13.00;99.90;;;;;;5010833;28;20069;-81
2021/08/27 05:31:17;;;;;;;4.45;1.27;;;13.00;99.90;;;;;;5010605;28;20524;-81
2021/08/27 05:33:43;;;;;;;7.57;1.35;;;12.90;99.90;;;;;;5009708;28;20030;-81
2021/08/27 05:36:09;;;;;;;7.25;1.67;;;13.00;99.90;;;;;;5007789;28;20089;-82
2021/08/27 05:38:35;;;;;;;3.78;1.20;;;12.90;99.90;;;;;;5010474;28;20026;-82
2021/08/27 05:41:01;;;;;;;4.68;1.30;;;13.20;99.90;;;;;;5009593;28;20110;-81
2021/08/27 05:43:27;;;;;;;5.57;1.73;;;13.00;99.90;;;;;;5010662;28;20034;-82
2021/08/27 05:45:53;;;;;;;6.63;1.30;;;13.00;99.90;;;;;;5011096;28;20017;-81
2021/08/27 05:48:18;;;;;;;3.80;1.30;;;13.00;99.90;;;;;;5009789;28;20143;-81
2021/08/27 05:50:44;;;;;;;5.60;1.33;;;13.00;99.90;;;;;;5011248;28;20045;-81
2021/08/27 05:53:09;;;;;;;4.53;1.00;;;13.00;99.90;;;;;;5024085;28;20470;-81
2021/08/27 05:55:35;;;;;;;2.78;1.30;;;13.10;99.90;;;;;;5016127;28;20018;-82
2021/08/27 05:58:00;;;;;;;8.45;1.33;;;13.10;99.90;;;;;;5015488;28;20567;-82
2021/08/27 06:00:26;;;;;;;5.25;1.00;;;13.10;99.90;;;;;;5026095;28;20081;-81
2021/08/27 06:02:52;;;;;;;5.80;1.40;;;13.20;99.90;;;;;;5018358;28;20425;-78
2021/08/27 06:05:20;;;;;;;5.50;1.52;;;13.30;99.90;;;;;;5015936;28;20474;-80
2021/08/27 06:07:46;;;;;;;7.35;1.38;;;13.30;99.90;;;;;;5030674;28;20054;-83
2021/08/27 06:10:11;;;;;;;6.80;1.40;;;13.40;99.90;;;;;;5025978;28;20032;-80
2021/08/27 06:12:40;;;;;;;8.60;1.10;;;13.50;99.90;;;;;;5006893;28;20044;-81
2021/08/27 06:15:07;;;;;;;9.18;1.20;;;13.60;99.90;;;;;;5017217;28;20114;-76
2021/08/27 06:17:33;;;;;;;3.85;1.55;;;13.70;99.90;;;;;;5022874;28;20037;-82
2021/08/27 06:19:58;;;;;;;5.45;1.23;;;13.80;99.90;;;;;;5015036;28;20105;-79
2021/08/27 06:22:24;;;;;;;6.18;1.10;;;13.80;99.90;;;;;;5013718;28;20025;-79
2021/08/27 06:24:49;;;;;;;7.47;2.38;;;13.90;99.90;;;;;;5014368;28;20038;-77
2021/08/27 06:27:15;;;;;;;5.28;1.10;;;14.00;99.90;;;;;;5016057;28;20476;-82
2021/08/27 06:29:41;;;;;;;6.15;1.58;;;14.10;99.90;;;;;;5015313;28;20137;-84
2021/08/27 06:32:07;;;;;;;7.72;1.30;;;15.00;99.90;;;;;;5016149;28;20022;-83
2021/08/27 06:34:32;;;;;;;4.38;1.70;;;14.30;99.90;;;;;;5015183;28;20088;-83
2021/08/27 06:36:58;;;;;;;5.25;1.35;;;14.40;99.90;;;;;;5015864;28;20034;-84
2021/08/27 06:39:24;;;;;;;3.95;1.38;;;14.40;99.90;;;;;;5014587;28;20050;-85
2021/08/27 06:41:49;;;;;;;6.00;0.93;;;14.50;99.90;;;;;;5013778;28;20014;-84
2021/08/27 06:44:15;;;;;;;2.42;1.05;;;14.60;99.90;;;;;;5014625;28;20030;-83
2021/08/27 06:46:43;;;;;;;7.80;1.33;;;14.70;99.90;;;;;;5011676;28;20034;-84
2021/08/27 06:49:10;;;;;;;7.45;1.50;;;14.70;99.90;;;;;;5009918;28;20026;-84
2021/08/27 06:51:35;;;;;;;5.63;1.30;;;14.80;99.90;;;;;;5017946;28;20109;-83
2021/08/27 06:54:01;;;;;;;4.38;0.93;;;15.00;99.90;;;;;;5018587;28;20030;-79
2021/08/27 06:56:27;;;;;;;4.05;1.00;;;15.00;99.90;;;;;;5017220;28;20482;-81
2021/08/27 06:58:52;;;;;;;9.10;1.95;;;15.20;99.90;;;;;;5017457;28;20025;-81
2021/08/27 07:01:18;;;;;;;5.25;1.20;;;15.30;99.90;;;;;;5016999;28;20056;-76
2021/08/27 07:03:44;;;;;;;6.80;0.98;;;15.40;99.90;;;;;;5013858;28;20478;-76
2021/08/27 07:06:09;;;;;;;4.50;1.48;;;15.50;99.90;;;;;;5016976;28;20026;-74
2021/08/27 07:08:35;;;;;;;4.13;1.40;;;15.50;99.90;;;;;;5012331;28;20030;-75
2021/08/27 07:11:01;;;;;;;4.97;1.42;;;15.70;99.90;;;;;;5001898;28;20040;-75
2021/08/27 07:13:29;;;;;;;4.35;1.10;;;15.70;99.90;;;;;;5015056;28;20032;-75
2021/08/27 07:15:58;;;;;;;1.23;0.70;;;15.80;99.90;;;;;;5014496;28;20021;-76
2021/08/27 07:18:26;;;;;;;5.95;1.10;;;15.90;99.90;;;;;;5013055;28;20033;-76
2021/08/27 07:20:55;;;;;;;4.82;1.10;;;16.00;99.90;;;;;;5015516;28;20028;-76
2021/08/27 07:23:21;;;;;;;7.00;1.02;;;16.00;99.90;;;;;;5015605;28;20042;-75
2021/08/27 07:25:47;;;;;;;6.00;1.10;;;16.20;99.90;;;;;;5015349;28;20068;-76
2021/08/27 07:28:12;;;;;;;5.20;1.30;;;16.30;99.90;;;;;;5004990;28;20033;-77
2021/08/27 07:30:39;;;;;;;7.05;1.38;;;16.20;99.90;;;;;;5015777;28;20026;-77
2021/08/27 07:33:06;;;;;;;4.75;1.40;;;16.30;99.90;;;;;;5014726;28;20022;-75
2021/08/27 07:35:32;;;;;;;5.68;1.42;;;16.30;99.90;;;;;;5013396;28;20416;-75
2021/08/27 07:37:57;;;;;;;5.15;1.40;;;16.40;99.90;;;;;;5013262;28;20488;-75
2021/08/27 07:40:23;;;;;;;7.13;1.10;;;16.50;99.90;;;;;;5012944;28;20037;-71
2021/08/27 07:42:49;;;;;;;5.38;1.48;;;16.60;99.90;;;;;;5012917;28;20105;-75
2021/08/27 07:45:15;;;;;;;5.28;1.10;;;16.60;99.90;;;;;;5013006;28;20036;-74
2021/08/27 07:47:42;;;;;;;4.65;1.63;;;16.60;99.90;;;;;;5012138;28;20133;-75
2021/08/27 07:50:08;;;;;;;6.60;1.50;;;16.60;99.90;;;;;;5013515;28;20018;-77
2021/08/27 07:52:34;;;;;;;6.07;1.10;;;16.60;99.90;;;;;;5015461;28;20021;-78
2021/08/27 07:55:00;;;;;;;3.80;1.27;;;16.60;99.90;;;;;;5013515;28;20532;-79
2021/08/27 07:57:25;;;;;;;8.13;1.45;;;16.60;99.90;;;;;;5016449;28;20056;-82
2021/08/27 07:59:51;;;;;;;2.72;1.27;;;16.70;99.90;;;;;;5019985;28;20018;-81
2021/08/27 08:02:16;;;;;;;7.07;1.50;;;16.70;99.90;;;;;;5018930;28;20052;-79
2021/08/27 08:04:42;;;;;;;2.83;1.58;;;16.80;99.90;;;;;;5018162;28;20103;-83
2021/08/27 08:07:08;;;;;;;2.88;1.27;;;16.80;99.90;;;;;;5014424;28;20024;-79
2021/08/27 08:09:34;;;;;;;2.20;1.25;;;16.90;99.90;;;;;;5019110;28;20033;-85
2021/08/27 08:11:59;;;;;;;9.32;1.80;;;16.90;99.90;;;;;;5019418;28;20018;-81
2021/08/27 08:14:25;;;;;;;3.08;1.42;;;17.00;99.90;;;;;;5020268;28;20060;-82
2021/08/27 08:16:51;;;;;;;2.95;1.20;;;17.00;99.90;;;;;;5016879;28;20026;-79
2021/08/27 08:19:17;;;;;;;6.50;1.38;;;17.10;99.90;;;;;;5018027;28;20022;-78
2021/08/27 08:21:43;;;;;;;4.95;1.45;;;17.10;99.90;;;;;;5017797;28;20493;-73
2021/08/27 08:24:09;;;;;;;4.65;1.25;;;17.20;99.90;;;;;;5016287;28;20034;-81
2021/08/27 08:26:34;;;;;;;3.95;1.30;;;17.20;99.90;;;;;;5017159;28;21832;-80
2021/08/27 08:29:00;;;;;;;3.25;0.70;;;17.30;99.90;;;;;;5015432;28;20029;-80
2021/08/27 08:31:26;;;;;;;4.78;1.40;;;17.40;99.90;;;;;;5015720;28;20108;-81
2021/08/27 08:33:53;;;;;;;5.55;1.20;;;17.50;99.90;;;;;;5018016;28;20064;-81
2021/08/27 08:36:20;;;;;;;1.48;1.10;;;17.50;99.90;;;;;;5016914;28;20037;-81
2021/08/27 08:38:47;;;;;;;6.07;1.10;;;17.60;99.90;;;;;;5002239;28;20072;-81
2021/08/27 08:41:15;;;;;;;3.35;1.50;;;17.60;99.90;;;;;;5017024;28;20033;-79
2021/08/27 08:43:41;;;;;;;2.45;1.20;;;17.70;99.90;;;;;;5019420;28;20045;-81
2021/08/27 08:46:07;;;;;;;4.88;2.15;;;17.90;99.90;;;;;;5020908;28;20409;-80
2021/08/27 08:48:34;;;;;;;6.43;1.50;;;17.90;99.90;;;;;;5006091;28;20051;-79
2021/08/27 08:51:03;;;;;;;2.92;1.20;;;18.00;99.90;;;;;;5017900;28;20046;-81
2021/08/27 08:53:31;;;;;;;3.47;1.40;;;18.10;99.90;;;;;;5004015;28;20038;-80
2021/08/27 08:55:57;;;;;;;9.13;1.88;;;18.20;99.90;;;;;;5007634;28;20037;-81
2021/08/27 08:58:23;;;;;;;6.43;2.40;;;18.30;99.90;;;;;;5017373;28;20022;-82
2021/08/27 09:00:49;;;;;;;7.15;1.92;;;18.40;99.90;;;;;;5015433;28;20022;-81
2021/08/27 09:03:14;;;;;;;10.35;2.83;;;18.20;99.90;;;;;;5013289;28;20095;-79
2021/08/27 09:05:41;;;;;;;5.28;1.90;;;18.10;99.90;;;;;;5012302;28;20382;-81
2021/08/27 09:08:07;;;;;;;4.70;1.67;;;18.10;99.90;;;;;;5015050;28;20118;-82
2021/08/27 09:10:46;;;;;;;5.95;1.75;;;18.00;99.90;;;;;;5012303;28;20054;-83
2021/08/27 09:13:12;;;;;;;9.57;2.08;;;18.10;99.90;;;;;;5013530;28;20053;-81
2021/08/27 09:15:37;;;;;;;4.47;1.67;;;18.20;99.90;;;;;;5013082;28;20486;-81
2021/08/27 09:18:10;;;;;;;3.60;1.27;;;18.30;99.90;;;;;;5015127;28;20057;-80
2021/08/27 09:20:36;;;;;;;6.78;1.40;;;18.50;99.90;;;;;;5013962;28;20034;-82
2021/08/27 09:23:05;;;;;;;5.97;1.73;;;18.60;99.90;;;;;;5014065;28;20030;-81
2021/08/27 09:25:41;;;;;;;6.82;1.85;;;18.50;99.90;;;;;;5013781;28;20381;-82
2021/08/27 09:28:18;;;;;;;2.88;1.60;;;18.50;99.90;;;;;;5002301;28;20033;-81
2021/08/27 09:30:57;;;;;;;8.80;1.88;;;18.70;99.90;;;;;;5016750;28;20033;-82
2021/08/27 09:33:28;;;;;;;4.03;1.38;;;18.70;99.90;;;;;;5016686;28;20034;-82
2021/08/27 09:35:58;;;;;;;5.50;1.88;;;18.50;99.90;;;;;;5016472;28;20026;-81
2021/08/27 09:38:29;;;;;;;5.43;2.40;;;18.60;99.90;;;;;;5016948;28;20018;-82
2021/08/27 09:41:00;;;;;;;8.25;2.47;;;18.60;99.90;;;;;;5017619;28;20025;-82
2021/08/27 09:43:25;;;;;;;8.85;2.20;;;18.50;99.90;;;;;;5019131;28;20064;-82
2021/08/27 09:45:51;;;;;;;5.07;1.83;;;18.60;99.90;;;;;;5017267;28;20061;-80
2021/08/27 09:48:17;;;;;;;4.05;1.55;;;18.50;99.90;;;;;;5017390;28;20065;-82
2021/08/27 09:50:44;;;;;;;7.40;1.90;;;18.50;99.90;;;;;;5016220;28;20083;-82
2021/08/27 09:53:12;;;;;;;5.22;1.73;;;18.30;99.90;;;;;;5016493;28;20485;-81
2021/08/27 09:55:51;;;;;;;3.60;1.15;;;18.30;99.90;;;;;;5017010;28;20105;-80
2021/08/27 09:58:17;;;;;;;3.50;1.50;;;18.30;99.90;;;;;;5017037;28;20152;-82
2021/08/27 10:00:44;;;;;;;5.50;1.50;;;18.40;99.90;;;;;;5016095;28;20088;-81
2021/08/27 10:03:23;;;;;;;10.45;1.80;;;18.40;99.90;;;;;;5017189;28;20058;-81
2021/08/27 10:05:50;;;;;;;3.90;2.00;;;18.70;99.90;;;;;;5017856;28;20037;-81
2021/08/27 10:08:18;;;;;;;5.00;1.55;;;18.70;99.90;;;;;;5017813;28;20022;-81
2021/08/27 10:10:44;;;;;;;2.83;1.42;;;18.70;99.90;;;;;;5018181;28;20030;-81
2021/08/27 10:13:11;;;;;;;6.22;1.70;;;18.80;99.90;;;;;;5017362;28;20026;-80
2021/08/27 10:15:37;;;;;;;2.67;1.38;;;18.90;99.90;;;;;;5012765;28;20026;-76
2021/08/27 10:18:08;;;;;;;2.15;1.55;;;19.00;99.90;;;;;;5021699;28;20040;-80
2021/08/27 10:20:35;;;;;;;7.78;2.35;;;18.90;99.90;;;;;;5017851;28;20026;-80
2021/08/27 10:23:01;;;;;;;4.88;1.63;;;19.10;99.90;;;;;;5021021;28;20033;-81
2021/08/27 10:25:28;;;;;;;4.90;2.33;;;19.10;99.90;;;;;;5018943;28;20470;-80
2021/08/27 10:27:54;;;;;;;4.22;1.70;;;19.10;99.90;;;;;;5016088;28;20022;-80
2021/08/27 10:30:53;;;;;;;5.40;2.03;;;18.90;99.90;;;;;;5016975;28;20021;-80
2021/08/27 10:33:39;;;;;;;4.65;1.77;;;18.90;99.90;;;;;;5016349;28;20036;-80
2021/08/27 10:36:26;;;;;;;9.40;1.85;;;18.90;99.90;;;;;;5016183;28;20018;-80
2021/08/27 10:38:54;;;;;;;5.03;1.88;;;18.90;99.90;;;;;;5015531;28;20072;-80
2021/08/27 10:41:27;;;;;;;3.83;1.98;;;19.10;99.90;;;;;;5023512;28;20026;-81
2021/08/27 10:44:06;;;;;;;3.97;2.17;;;19.30;99.90;;;;;;5017836;28;20034;-81
2021/08/27 10:46:47;;;;;;;5.38;1.92;;;19.30;99.90;;;;;;5015357;28;20054;-80
2021/08/27 10:49:14;;;;;;;;;;;19.40;99.90;;;;;;5002521;28;20851;-80
2021/08/27 10:51:42;;;;;;;4.70;2.25;;;19.20;99.90;;;;;;5015026;28;19906;-81
2021/08/27 10:54:09;;;;;;;6.97;2.17;;;19.20;99.90;;;;;;5014626;28;20598;-80
2021/08/27 10:56:44;;;;;;;12.63;2.10;;;19.20;99.90;;;;;;5008792;28;20033;-81
2021/08/27 10:59:11;;;;;;;6.95;2.45;;;19.30;99.90;;;;;;5013220;28;20101;-80
2021/08/27 11:01:40;;;;;;;5.95;2.05;;;19.30;99.90;;;;;;5013786;28;20466;-80
2021/08/27 11:04:13;;;;;;;8.82;2.53;;;19.30;99.90;;;;;;5013482;28;20038;-79
2021/08/27 11:06:52;;;;;;;7.22;2.30;;;19.40;99.90;;;;;;5000784;28;20030;-84
2021/08/27 11:09:26;;;;;;;7.03;2.33;;;19.70;99.90;;;;;;5006907;28;20026;-80
2021/08/27 11:12:09;;;;;;;8.32;2.17;;;19.80;99.90;;;;;;5006494;28;20072;-81
2021/08/27 11:14:39;;;;;;;3.67;2.00;;;19.90;99.90;;;;;;4996834;28;20026;-82
2021/08/27 11:17:07;;;;;;;6.97;2.55;;;20.10;99.90;;;;;;4998782;28;20010;-83
2021/08/27 11:19:34;;;;;;;9.45;2.75;;;20.10;99.90;;;;;;5006467;28;20034;-83
2021/08/27 11:22:11;;;;;;;7.68;2.40;;;20.00;99.90;;;;;;5006485;28;20033;-82
2021/08/27 11:25:07;;;;;;;3.97;1.70;;;19.70;99.90;;;;;;5001157;28;20030;-81
2021/08/27 11:27:35;;;;;;;7.05;2.58;;;19.00;99.90;;;;;;5015593;28;20034;-82
2021/08/27 11:30:28;;;;;;;9.23;2.53;;;18.90;99.90;;;;;;5014466;28;20026;-83
2021/08/27 11:32:55;;;;;;;6.88;2.70;;;18.70;99.90;;;;;;5015957;28;20014;-82
2021/08/27 11:35:22;;;;;;;12.60;2.85;;;18.60;99.90;;;;;;5015023;28;20022;-74
2021/08/27 11:38:08;;;;;;;9.32;2.28;;;18.70;99.90;;;;;;5014432;28;20029;-82
2021/08/27 11:40:34;;;;;;;6.63;2.22;;;18.90;99.90;;;;;;5003314;28;20525;-82
2021/08/27 11:42:59;;;;;;;6.65;1.95;;;19.20;99.90;;;;;;4995391;28;20132;-81
2021/08/27 11:45:27;;;;;;;3.72;1.92;;;19.30;99.90;;;;;;4997987;28;20026;-82
2021/08/27 11:47:55;;;;;;;5.97;2.17;;;19.20;99.90;;;;;;5013813;28;20131;-82
2021/08/27 11:50:24;;;;;;;9.18;2.20;;;19.00;99.90;;;;;;5012851;28;20044;-80
2021/08/27 11:53:00;;;;;;;9.73;1.90;;;19.00;99.90;;;;;;5012539;28;20033;-81
2021/08/27 11:55:30;;;;;;;5.05;2.03;;;18.90;99.90;;;;;;5013385;28;20041;-81
2021/08/27 11:58:01;;;;;;;4.47;2.07;;;18.90;99.90;;;;;;5004651;28;20578;-82
2021/08/27 12:00:44;;;;;;;6.63;2.40;;;19.00;99.90;;;;;;5005769;28;20275;-82
2021/08/27 12:03:12;;;;;;;9.95;2.08;;;19.10;99.90;;;;;;5005001;28;20504;-81
2021/08/27 12:05:40;;;;;;;3.25;1.55;;;19.20;99.90;;;;;;5013238;28;20017;-82
2021/08/27 12:08:13;;;;;;;10.90;1.70;;;19.10;99.90;;;;;;4995947;28;20026;-80
2021/08/27 12:10:42;;;;;;;7.10;1.30;;;18.80;99.90;;;;;;4998073;28;20037;-81
2021/08/27 12:13:11;;;;;;;2.63;1.20;;;18.50;99.90;;;;;;4994446;28;20123;-80
2021/08/27 12:15:40;;;;;;;2.97;1.23;;;18.10;99.90;;;;;;4999924;28;20105;-81
2021/08/27 12:18:08;;;;;;;2.28;1.48;;;17.80;99.90;;;;;;4998014;28;20097;-81
2021/08/27 12:20:36;;;;;;;5.53;1.45;;;17.50;99.90;;;;;;5008984;28;20037;-81
2021/08/27 12:23:07;;;;;;;3.17;1.02;;;17.20;99.90;;;;;;5013761;28;20026;-81
2021/08/27 12:25:39;;;;;;;2.25;0.95;;;16.80;99.90;;;;;;5013931;28;20120;-81
2021/08/27 12:28:06;;;;;;;2.72;1.30;;;16.40;99.90;;;;;;5012887;28;20054;-81
2021/08/27 12:30:32;;;;;;;4.15;1.25;;;16.10;99.90;;;;;;5014119;28;20104;-80
2021/08/27 12:32:58;;;;;;;10.10;1.25;;;16.00;99.90;;;;;;5013059;28;20531;-81
2021/08/27 12:35:32;;;;;;;5.15;1.42;;;15.90;99.90;;;;;;5001983;28;20038;-80
2021/08/27 12:37:59;;;;;;;6.40;1.25;;;16.00;99.90;;;;;;5012549;28;20037;-80
2021/08/27 12:40:26;;;;;;;3.35;1.55;;;16.10;99.90;;;;;;5013461;28;20021;-80
2021/08/27 12:42:57;;;;;;;2.25;1.15;;;16.30;99.90;;;;;;5011889;28;20125;-81
2021/08/27 12:45:24;;;;;;;8.00;1.38;;;16.40;99.90;;;;;;5005279;28;20526;-80
2021/08/27 12:47:52;;;;;;;5.22;1.52;;;16.60;99.90;;;;;;5004582;28;20071;-78
2021/08/27 12:50:18;;;;;;;5.15;1.35;;;16.70;99.90;;;;;;5005069;28;20032;-82
2021/08/27 12:53:05;;;;;;;5.18;1.25;;;16.90;99.90;;;;;;5000498;28;20031;-81